Item Display Status Serial CT Sensor

Mooring Depth: 1 m

 

Deployed Sensor

  • Serial Number: 12432
  • NDBC Property Number: 38898
  • Start Date: 3/30/2020 (08:58:14 Z)
  • End Date: 11/16/2021 (15:45:00 Z)
Water Temperature [°C]     6 entries per hour
Showing data from 12/31/2020 (12:00:00 Z) to 12/30/2020 (00:00:01 Z)
Previous Next [ Day | 3-Days | 7-Days ]
First Last
Prev [ Day | 3-Days | 7-Days ] Next
First Last

Start Time:     :
End Time:     :     
Time (in GMT) :00 :50 :40 :30 :20 :10
Previous Next [ Day | 3-Days | 7-Days ]
First Last
Prev [ Day | 3-Days | 7-Days ] Next
First Last


123 => good data
MM => data is determined as missing
-- => data not received/configured
Back to Top Back to Top
12/31/2020 12:00 to 11:10 22.853 22.920 22.906 22.894 22.913 22.907
12/31/2020 11:00 to 10:10 22.920 22.932 22.955 22.964 22.937 22.963
12/31/2020 10:00 to 9:10 22.965 22.974 22.979 22.944 22.979 22.952
12/31/2020 09:00 to 8:10 23.004 22.959 23.002 23.021 22.991 23.003
12/31/2020 08:00 to 7:10 22.996 22.990 22.992 23.001 23.014 22.984
12/31/2020 07:00 to 6:10 23.014 23.037 23.056 23.088 23.114 23.087
12/31/2020 06:00 to 5:10 23.086 23.087 23.095 23.120 23.120 23.141
12/31/2020 05:00 to 4:10 23.153 23.165 23.178 23.182 23.160 23.099
12/31/2020 04:00 to 3:10 23.152 23.138 23.094 23.125 23.117 23.129
12/31/2020 03:00 to 2:10 23.154 23.108 23.063 23.092 23.127 23.033
12/31/2020 02:00 to 1:10 23.122 23.095 23.092 23.104 23.075 23.102
12/31/2020 01:00 to 0:10 23.133 23.052 23.067 23.171 23.192 23.171
12/31/2020 00:00 to 23:10 23.125 23.176 23.306 23.340 23.301 23.242
12/30/2020 23:00 to 22:10 23.475 23.333 23.397 23.367 23.512 23.463
12/30/2020 22:00 to 21:10 23.492 23.258 23.508 23.491 23.515 23.380
12/30/2020 21:00 to 20:10 23.499 23.477 23.423 23.437 23.405 23.514
12/30/2020 20:00 to 19:10 23.476 23.504 23.533 23.427 23.357 23.458
12/30/2020 19:00 to 18:10 23.414 23.430 23.348 23.335 23.307 23.336
12/30/2020 18:00 to 17:10 23.263 23.281 23.211 23.206 23.179 23.177
12/30/2020 17:00 to 16:10 23.141 23.146 23.138 23.115 23.112 23.106
12/30/2020 16:00 to 15:10 23.106 23.096 23.089 23.075 23.098 23.099
12/30/2020 15:00 to 14:10 23.106 23.113 23.112 23.118 23.106 23.120
12/30/2020 14:00 to 13:10 23.115 23.085 23.082 23.083 23.063 23.063
12/30/2020 13:00 to 12:10 23.065 23.073 23.070 23.068 23.078 23.084
12/30/2020 12:00 to 11:10 23.086 23.080 23.080 23.099 23.109 23.113
12/30/2020 11:00 to 10:10 23.101 23.117 23.120 23.125 23.129 23.124
12/30/2020 10:00 to 9:10 23.130 23.140 23.148 23.148 23.156 23.162
12/30/2020 09:00 to 8:10 23.166 23.164 23.163 23.171 23.171 23.162
12/30/2020 08:00 to 7:10 23.172 23.171 23.171 23.172 23.176 23.186
12/30/2020 07:00 to 6:10 23.193 23.195 23.199 23.199 23.196 23.184
12/30/2020 06:00 to 5:10 23.193 23.210 23.212 23.193 23.200 23.209
12/30/2020 05:00 to 4:10 23.218 23.235 23.182 23.205 23.201 23.205
12/30/2020 04:00 to 3:10 23.190 23.198 23.212 23.200 23.270 23.205
12/30/2020 03:00 to 2:10 23.225 23.258 23.226 23.243 23.239 23.258
12/30/2020 02:00 to 1:10 23.208 23.168 23.235 23.221 23.249 23.286
12/30/2020 01:00 to 0:10 23.303 23.317 23.318 23.324 23.348 23.370

 

 

 

Conductivity [S/m]     6 entries per hour
Showing data from 12/31/2020 (12:00:00 Z) to 12/30/2020 (00:00:01 Z)
Previous Next [ Day | 3-Days | 7-Days ]
First Last
Prev [ Day | 3-Days | 7-Days ] Next
First Last

Start Time:     :
End Time:     :     
Time (in GMT) :00 :50 :40 :30 :20 :10
Previous Next [ Day | 3-Days | 7-Days ]
First Last
Prev [ Day | 3-Days | 7-Days ] Next
First Last


123 => good data
MM => data is determined as missing
-- => data not received/configured
Back to Top Back to Top
12/31/2020 12:00 to 11:10 5.02893 5.03728 5.03533 5.03277 5.03450 5.03353
12/31/2020 11:00 to 10:10 5.03536 5.03594 5.03888 5.03940 5.03551 5.03853
12/31/2020 10:00 to 9:10 5.03886 5.03923 5.03927 5.03495 5.03841 5.03554
12/31/2020 09:00 to 8:10 5.04089 5.03608 5.04003 5.04151 5.03847 5.03990
12/31/2020 08:00 to 7:10 5.03887 5.03785 5.03845 5.03937 5.04040 5.03739
12/31/2020 07:00 to 6:10 5.04032 5.04271 5.04473 5.04796 5.05022 5.04772
12/31/2020 06:00 to 5:10 5.04771 5.04713 5.04818 5.05032 5.05020 5.05217
12/31/2020 05:00 to 4:10 5.05352 5.05442 5.05501 5.05592 5.05311 5.04662
12/31/2020 04:00 to 3:10 5.05213 5.05037 5.04504 5.04818 5.04754 5.04821
12/31/2020 03:00 to 2:10 5.05061 5.04466 5.04027 5.04267 5.04544 5.03522
12/31/2020 02:00 to 1:10 5.04359 5.04139 5.03921 5.03976 5.03700 5.03952
12/31/2020 01:00 to 0:10 5.04413 5.03505 5.03303 5.04463 5.04391 5.04515
12/31/2020 00:00 to 23:10 5.04217 5.04677 5.05846 5.06086 5.05707 5.05263
12/30/2020 23:00 to 22:10 5.07410 5.05887 5.06897 5.06171 5.07883 5.07490
12/30/2020 22:00 to 21:10 5.07779 5.05697 5.07845 5.07428 5.07976 5.06829
12/30/2020 21:00 to 20:10 5.07824 5.07384 5.07203 5.07507 5.07221 5.07646
12/30/2020 20:00 to 19:10 5.07960 5.07643 5.08083 5.07137 5.06366 5.07362
12/30/2020 19:00 to 18:10 5.06879 5.07061 5.06200 5.06089 5.05828 5.05978
12/30/2020 18:00 to 17:10 5.05163 5.05447 5.04713 5.04520 5.04326 5.04173
12/30/2020 17:00 to 16:10 5.03956 5.03927 5.03756 5.03483 5.03497 5.03483
12/30/2020 16:00 to 15:10 5.03424 5.03286 5.03212 5.02998 5.03257 5.03264
12/30/2020 15:00 to 14:10 5.03306 5.03355 5.03346 5.03391 5.03243 5.03383
12/30/2020 14:00 to 13:10 5.03293 5.02948 5.02902 5.02890 5.02651 5.02630
12/30/2020 13:00 to 12:10 5.02632 5.02700 5.02693 5.02635 5.02726 5.02796
12/30/2020 12:00 to 11:10 5.02776 5.02726 5.02695 5.02886 5.02989 5.03008
12/30/2020 11:00 to 10:10 5.02884 5.03064 5.03061 5.03135 5.03135 5.03082
12/30/2020 10:00 to 9:10 5.03111 5.03226 5.03269 5.03273 5.03327 5.03351
12/30/2020 09:00 to 8:10 5.03369 5.03351 5.03349 5.03393 5.03383 5.03302
12/30/2020 08:00 to 7:10 5.03393 5.03380 5.03351 5.03374 5.03404 5.03494
12/30/2020 07:00 to 6:10 5.03551 5.03573 5.03612 5.03608 5.03554 5.03449
12/30/2020 06:00 to 5:10 5.03507 5.03684 5.03713 5.03497 5.03556 5.03655
12/30/2020 05:00 to 4:10 5.03746 5.03903 5.03298 5.03529 5.03505 5.03553
12/30/2020 04:00 to 3:10 5.03344 5.03404 5.03536 5.03494 5.04160 5.03407
12/30/2020 03:00 to 2:10 5.03627 5.03919 5.03589 5.03750 5.03752 5.03883
12/30/2020 02:00 to 1:10 5.03342 5.02910 5.03606 5.03463 5.03773 5.04113
12/30/2020 01:00 to 0:10 5.04289 5.04421 5.04487 5.04478 5.04710 5.04976

 

 

 

Salinity [psu]     6 entries per hour
Showing data from 12/31/2020 (12:00:00 Z) to 12/30/2020 (00:00:01 Z)
Previous Next [ Day | 3-Days | 7-Days ]
First Last
Prev [ Day | 3-Days | 7-Days ] Next
First Last

Start Time:     :
End Time:     :     
Time (in GMT) :00 :50 :40 :30 :20 :10
Previous Next [ Day | 3-Days | 7-Days ]
First Last
Prev [ Day | 3-Days | 7-Days ] Next
First Last


123 => good data
MM => data is determined as missing
-- => data not received/configured
Back to Top Back to Top
12/31/2020 12:00 to 11:10 34.57 34.58 34.58 34.57 34.57 34.57
12/31/2020 11:00 to 10:10 34.57 34.57 34.57 34.57 34.56 34.56
12/31/2020 10:00 to 9:10 34.56 34.56 34.55 34.55 34.55 34.55
12/31/2020 09:00 to 8:10 34.55 34.55 34.54 34.54 34.54 34.54
12/31/2020 08:00 to 7:10 34.54 34.53 34.54 34.54 34.53 34.54
12/31/2020 07:00 to 6:10 34.53 34.53 34.53 34.54 34.53 34.53
12/31/2020 06:00 to 5:10 34.53 34.53 34.53 34.53 34.53 34.53
12/31/2020 05:00 to 4:10 34.53 34.52 34.52 34.52 34.52 34.52
12/31/2020 04:00 to 3:10 34.52 34.51 34.51 34.51 34.51 34.50
12/31/2020 03:00 to 2:10 34.50 34.49 34.50 34.49 34.49 34.48
12/31/2020 02:00 to 1:10 34.47 34.48 34.46 34.46 34.46 34.46
12/31/2020 01:00 to 0:10 34.47 34.46 34.44 34.44 34.42 34.45
12/31/2020 00:00 to 23:10 34.46 34.46 34.44 34.44 34.44 34.45
12/30/2020 23:00 to 22:10 34.43 34.43 34.45 34.42 34.44 34.45
12/30/2020 22:00 to 21:10 34.45 34.47 34.44 34.42 34.44 34.46
12/30/2020 21:00 to 20:10 34.45 34.43 34.46 34.47 34.47 34.42
12/30/2020 20:00 to 19:10 34.47 34.43 34.44 34.45 34.44 34.44
12/30/2020 19:00 to 18:10 34.44 34.44 34.44 34.44 34.44 34.43
12/30/2020 18:00 to 17:10 34.43 34.43 34.43 34.42 34.43 34.42
12/30/2020 17:00 to 16:10 34.43 34.42 34.42 34.41 34.42 34.42
12/30/2020 16:00 to 15:10 34.42 34.41 34.41 34.41 34.41 34.41
12/30/2020 15:00 to 14:10 34.41 34.40 34.40 34.40 34.40 34.40
12/30/2020 14:00 to 13:10 34.40 34.40 34.39 34.39 34.39 34.39
12/30/2020 13:00 to 12:10 34.39 34.39 34.39 34.38 34.38 34.38
12/30/2020 12:00 to 11:10 34.38 34.38 34.38 34.38 34.38 34.38
12/30/2020 11:00 to 10:10 34.38 34.38 34.38 34.38 34.38 34.38
12/30/2020 10:00 to 9:10 34.37 34.37 34.37 34.37 34.37 34.37
12/30/2020 09:00 to 8:10 34.36 34.36 34.37 34.36 34.36 34.36
12/30/2020 08:00 to 7:10 34.36 34.36 34.36 34.36 34.36 34.36
12/30/2020 07:00 to 6:10 34.36 34.36 34.36 34.36 34.36 34.36
12/30/2020 06:00 to 5:10 34.35 34.35 34.35 34.35 34.35 34.35
12/30/2020 05:00 to 4:10 34.35 34.35 34.35 34.35 34.35 34.35
12/30/2020 04:00 to 3:10 34.34 34.34 34.34 34.35 34.34 34.34
12/30/2020 03:00 to 2:10 34.34 34.33 34.33 34.33 34.34 34.33
12/30/2020 02:00 to 1:10 34.33 34.33 34.33 34.33 34.33 34.33
12/30/2020 01:00 to 0:10 34.33 34.33 34.33 34.33 34.33 34.33